sensor_id;sensor_type;location;lat;lon;timestamp;temperature;humidity
31525;DHT22;18134;52.298;8.888;2023-02-02T00:01:12;4.80;99.90
31525;DHT22;18134;52.298;8.888;2023-02-02T00:03:37;4.70;99.90
31525;DHT22;18134;52.298;8.888;2023-02-02T00:06:03;4.60;99.90
31525;DHT22;18134;52.298;8.888;2023-02-02T00:08:29;4.60;99.90
31525;DHT22;18134;52.298;8.888;2023-02-02T00:10:54;4.60;99.90
31525;DHT22;18134;52.298;8.888;2023-02-02T00:13:23;4.70;99.90
31525;DHT22;18134;52.298;8.888;2023-02-02T00:15:49;4.70;99.90
31525;DHT22;18134;52.298;8.888;2023-02-02T00:18:16;4.80;99.90
31525;DHT22;18134;52.298;8.888;2023-02-02T00:20:44;4.70;99.90
31525;DHT22;18134;52.298;8.888;2023-02-02T00:23:13;4.80;99.90
31525;DHT22;18134;52.298;8.888;2023-02-02T00:25:39;4.70;99.90
31525;DHT22;18134;52.298;8.888;2023-02-02T00:28:04;4.60;99.90
31525;DHT22;18134;52.298;8.888;2023-02-02T00:30:30;4.90;99.90
31525;DHT22;18134;52.298;8.888;2023-02-02T00:32:55;4.60;99.90
31525;DHT22;18134;52.298;8.888;2023-02-02T00:35:21;4.70;99.90
31525;DHT22;18134;52.298;8.888;2023-02-02T00:37:47;4.90;99.90
31525;DHT22;18134;52.298;8.888;2023-02-02T00:40:12;4.90;99.90
31525;DHT22;18134;52.298;8.888;2023-02-02T00:42:40;4.70;99.90
31525;DHT22;18134;52.298;8.888;2023-02-02T00:45:11;4.70;99.90
31525;DHT22;18134;52.298;8.888;2023-02-02T00:47:47;4.80;99.90
31525;DHT22;18134;52.298;8.888;2023-02-02T00:50:16;4.80;99.90
31525;DHT22;18134;52.298;8.888;2023-02-02T00:52:43;4.80;99.90
31525;DHT22;18134;52.298;8.888;2023-02-02T00:55:09;4.80;99.90
31525;DHT22;18134;52.298;8.888;2023-02-02T00:57:35;4.70;99.90
31525;DHT22;18134;52.298;8.888;2023-02-02T01:00:01;4.70;99.90
31525;DHT22;18134;52.298;8.888;2023-02-02T01:02:26;4.70;99.90
31525;DHT22;18134;52.298;8.888;2023-02-02T01:04:52;4.70;99.90
31525;DHT22;18134;52.298;8.888;2023-02-02T01:07:17;4.70;99.90
31525;DHT22;18134;52.298;8.888;2023-02-02T01:09:45;4.70;99.90
31525;DHT22;18134;52.298;8.888;2023-02-02T01:12:11;4.60;99.90
31525;DHT22;18134;52.298;8.888;2023-02-02T01:14:36;4.80;99.90
31525;DHT22;18134;52.298;8.888;2023-02-02T01:17:02;4.70;99.90
31525;DHT22;18134;52.298;8.888;2023-02-02T01:19:32;4.70;99.90
31525;DHT22;18134;52.298;8.888;2023-02-02T01:21:57;4.70;99.90
31525;DHT22;18134;52.298;8.888;2023-02-02T01:24:23;4.80;99.90
31525;DHT22;18134;52.298;8.888;2023-02-02T01:26:49;4.80;99.90
31525;DHT22;18134;52.298;8.888;2023-02-02T01:29:14;5.00;99.90
31525;DHT22;18134;52.298;8.888;2023-02-02T01:31:40;5.60;99.90
31525;DHT22;18134;52.298;8.888;2023-02-02T01:34:06;4.80;99.90
31525;DHT22;18134;52.298;8.888;2023-02-02T01:36:32;4.80;99.90
31525;DHT22;18134;52.298;8.888;2023-02-02T01:38:58;5.20;99.90
31525;DHT22;18134;52.298;8.888;2023-02-02T01:41:24;5.20;99.90
31525;DHT22;18134;52.298;8.888;2023-02-02T01:43:56;4.60;99.90
31525;DHT22;18134;52.298;8.888;2023-02-02T01:46:22;5.00;99.90
31525;DHT22;18134;52.298;8.888;2023-02-02T01:48:52;4.70;99.90
31525;DHT22;18134;52.298;8.888;2023-02-02T01:51:21;5.30;99.90
31525;DHT22;18134;52.298;8.888;2023-02-02T01:53:48;4.70;99.90
31525;DHT22;18134;52.298;8.888;2023-02-02T01:56:17;4.70;99.90
31525;DHT22;18134;52.298;8.888;2023-02-02T01:58:45;4.60;99.90
31525;DHT22;18134;52.298;8.888;2023-02-02T02:01:11;4.60;99.90
31525;DHT22;18134;52.298;8.888;2023-02-02T02:03:42;4.50;99.90
31525;DHT22;18134;52.298;8.888;2023-02-02T02:06:08;4.40;99.90
31525;DHT22;18134;52.298;8.888;2023-02-02T02:08:40;4.50;99.90
31525;DHT22;18134;52.298;8.888;2023-02-02T02:11:06;4.50;99.90
31525;DHT22;18134;52.298;8.888;2023-02-02T02:13:33;4.60;99.90
31525;DHT22;18134;52.298;8.888;2023-02-02T02:21:46;4.40;99.90
31525;DHT22;18134;52.298;8.888;2023-02-02T02:27:57;4.30;99.90
31525;DHT22;18134;52.298;8.888;2023-02-02T02:40:57;4.60;99.90
31525;DHT22;18134;52.298;8.888;2023-02-02T02:43:26;4.70;99.90
31525;DHT22;18134;52.298;8.888;2023-02-02T02:45:53;4.60;99.90
31525;DHT22;18134;52.298;8.888;2023-02-02T02:48:18;4.50;99.90
31525;DHT22;18134;52.298;8.888;2023-02-02T02:50:44;5.10;99.90
31525;DHT22;18134;52.298;8.888;2023-02-02T02:53:19;4.40;99.90
31525;DHT22;18134;52.298;8.888;2023-02-02T03:01:06;4.50;99.90
31525;DHT22;18134;52.298;8.888;2023-02-02T03:08:57;4.70;99.90
31525;DHT22;18134;52.298;8.888;2023-02-02T03:11:24;4.50;99.90
31525;DHT22;18134;52.298;8.888;2023-02-02T03:13:51;4.50;99.90
31525;DHT22;18134;52.298;8.888;2023-02-02T03:16:19;5.00;99.90
31525;DHT22;18134;52.298;8.888;2023-02-02T03:18:45;4.60;99.90
31525;DHT22;18134;52.298;8.888;2023-02-02T03:21:13;4.70;99.90
31525;DHT22;18134;52.298;8.888;2023-02-02T03:23:41;5.10;99.90
31525;DHT22;18134;52.298;8.888;2023-02-02T03:26:07;4.70;99.90
31525;DHT22;18134;52.298;8.888;2023-02-02T03:28:32;5.70;99.90
31525;DHT22;18134;52.298;8.888;2023-02-02T03:31:15;4.80;99.90
31525;DHT22;18134;52.298;8.888;2023-02-02T03:33:41;4.80;99.90
31525;DHT22;18134;52.298;8.888;2023-02-02T03:36:07;4.80;99.90
31525;DHT22;18134;52.298;8.888;2023-02-02T03:38:32;4.80;99.90
31525;DHT22;18134;52.298;8.888;2023-02-02T03:40:58;4.90;99.90
31525;DHT22;18134;52.298;8.888;2023-02-02T03:43:28;5.50;99.90
31525;DHT22;18134;52.298;8.888;2023-02-02T03:45:57;4.90;99.90
31525;DHT22;18134;52.298;8.888;2023-02-02T03:48:24;4.80;99.90
31525;DHT22;18134;52.298;8.888;2023-02-02T03:50:49;5.10;99.90
31525;DHT22;18134;52.298;8.888;2023-02-02T03:53:15;4.90;99.90
31525;DHT22;18134;52.298;8.888;2023-02-02T03:55:40;4.80;99.90
31525;DHT22;18134;52.298;8.888;2023-02-02T03:58:08;4.70;99.90
31525;DHT22;18134;52.298;8.888;2023-02-02T04:00:36;4.80;99.90
31525;DHT22;18134;52.298;8.888;2023-02-02T04:03:02;4.90;99.90
31525;DHT22;18134;52.298;8.888;2023-02-02T04:05:27;4.80;99.90
31525;DHT22;18134;52.298;8.888;2023-02-02T04:07:53;4.90;99.90
31525;DHT22;18134;52.298;8.888;2023-02-02T04:10:21;4.80;99.90
31525;DHT22;18134;52.298;8.888;2023-02-02T04:12:47;5.10;99.90
31525;DHT22;18134;52.298;8.888;2023-02-02T04:15:12;4.80;99.90
31525;DHT22;18134;52.298;8.888;2023-02-02T04:17:38;5.00;99.90
31525;DHT22;18134;52.298;8.888;2023-02-02T04:20:06;4.90;99.90
31525;DHT22;18134;52.298;8.888;2023-02-02T04:22:32;4.90;99.90
31525;DHT22;18134;52.298;8.888;2023-02-02T04:24:57;4.90;99.90
31525;DHT22;18134;52.298;8.888;2023-02-02T04:27:23;5.00;99.90
31525;DHT22;18134;52.298;8.888;2023-02-02T04:29:49;5.00;99.90
31525;DHT22;18134;52.298;8.888;2023-02-02T04:32:14;5.10;99.90
31525;DHT22;18134;52.298;8.888;2023-02-02T04:34:40;5.10;99.90
31525;DHT22;18134;52.298;8.888;2023-02-02T04:37:06;5.10;99.90
31525;DHT22;18134;52.298;8.888;2023-02-02T04:39:36;5.00;99.90
31525;DHT22;18134;52.298;8.888;2023-02-02T04:42:02;5.10;99.90
31525;DHT22;18134;52.298;8.888;2023-02-02T04:44:28;5.00;99.90
31525;DHT22;18134;52.298;8.888;2023-02-02T04:46:53;5.40;99.90
31525;DHT22;18134;52.298;8.888;2023-02-02T04:49:27;5.20;99.90
31525;DHT22;18134;52.298;8.888;2023-02-02T04:51:52;5.10;99.90
31525;DHT22;18134;52.298;8.888;2023-02-02T04:54:18;5.50;99.90
31525;DHT22;18134;52.298;8.888;2023-02-02T04:56:46;5.10;99.90
31525;DHT22;18134;52.298;8.888;2023-02-02T04:59:11;5.30;99.90
31525;DHT22;18134;52.298;8.888;2023-02-02T05:01:37;5.10;99.90
31525;DHT22;18134;52.298;8.888;2023-02-02T05:04:05;5.00;99.90
31525;DHT22;18134;52.298;8.888;2023-02-02T05:06:30;5.60;99.90
31525;DHT22;18134;52.298;8.888;2023-02-02T05:08:58;5.10;99.90
31525;DHT22;18134;52.298;8.888;2023-02-02T05:11:24;5.20;99.90
31525;DHT22;18134;52.298;8.888;2023-02-02T05:13:50;5.20;99.90
31525;DHT22;18134;52.298;8.888;2023-02-02T05:16:19;5.20;99.90
31525;DHT22;18134;52.298;8.888;2023-02-02T05:18:52;5.20;99.90
31525;DHT22;18134;52.298;8.888;2023-02-02T05:21:18;5.10;99.90
31525;DHT22;18134;52.298;8.888;2023-02-02T05:23:46;6.00;99.90
31525;DHT22;18134;52.298;8.888;2023-02-02T05:26:13;5.20;99.90
31525;DHT22;18134;52.298;8.888;2023-02-02T05:28:40;5.70;99.90
31525;DHT22;18134;52.298;8.888;2023-02-02T05:31:07;5.20;99.90
31525;DHT22;18134;52.298;8.888;2023-02-02T05:33:33;5.80;99.90
31525;DHT22;18134;52.298;8.888;2023-02-02T05:35:58;5.50;99.90
31525;DHT22;18134;52.298;8.888;2023-02-02T05:38:24;5.50;99.90
31525;DHT22;18134;52.298;8.888;2023-02-02T05:40:52;5.30;99.90
31525;DHT22;18134;52.298;8.888;2023-02-02T05:43:17;5.30;99.90
31525;DHT22;18134;52.298;8.888;2023-02-02T05:45:43;5.50;99.90
31525;DHT22;18134;52.298;8.888;2023-02-02T05:48:11;5.40;99.90
31525;DHT22;18134;52.298;8.888;2023-02-02T05:50:40;5.60;99.90
31525;DHT22;18134;52.298;8.888;2023-02-02T05:53:07;5.40;99.90
31525;DHT22;18134;52.298;8.888;2023-02-02T05:55:33;6.00;99.90
31525;DHT22;18134;52.298;8.888;2023-02-02T05:57:58;5.50;99.90
31525;DHT22;18134;52.298;8.888;2023-02-02T06:00:24;5.50;99.90
31525;DHT22;18134;52.298;8.888;2023-02-02T06:02:49;5.50;99.90
31525;DHT22;18134;52.298;8.888;2023-02-02T06:05:17;5.60;99.90
31525;DHT22;18134;52.298;8.888;2023-02-02T06:07:43;5.50;99.90
31525;DHT22;18134;52.298;8.888;2023-02-02T06:10:11;5.50;99.90
31525;DHT22;18134;52.298;8.888;2023-02-02T06:12:36;5.50;99.90
31525;DHT22;18134;52.298;8.888;2023-02-02T06:15:02;5.70;99.90
31525;DHT22;18134;52.298;8.888;2023-02-02T06:17:28;5.90;99.90
31525;DHT22;18134;52.298;8.888;2023-02-02T06:19:53;5.60;99.90
31525;DHT22;18134;52.298;8.888;2023-02-02T06:22:21;5.60;99.90
31525;DHT22;18134;52.298;8.888;2023-02-02T06:24:47;5.80;99.90
31525;DHT22;18134;52.298;8.888;2023-02-02T06:27:18;5.80;99.90
31525;DHT22;18134;52.298;8.888;2023-02-02T06:29:43;5.80;99.90
31525;DHT22;18134;52.298;8.888;2023-02-02T06:32:09;6.00;99.90
31525;DHT22;18134;52.298;8.888;2023-02-02T06:34:34;5.90;99.90
31525;DHT22;18134;52.298;8.888;2023-02-02T06:37:00;5.80;99.90
31525;DHT22;18134;52.298;8.888;2023-02-02T06:39:25;5.90;99.90
31525;DHT22;18134;52.298;8.888;2023-02-02T06:41:51;5.90;99.90
31525;DHT22;18134;52.298;8.888;2023-02-02T06:44:19;5.50;99.90
31525;DHT22;18134;52.298;8.888;2023-02-02T06:46:45;5.80;99.90
31525;DHT22;18134;52.298;8.888;2023-02-02T06:49:11;5.90;99.90
31525;DHT22;18134;52.298;8.888;2023-02-02T06:51:36;5.50;99.90
31525;DHT22;18134;52.298;8.888;2023-02-02T06:54:04;5.80;99.90
31525;DHT22;18134;52.298;8.888;2023-02-02T06:56:30;5.20;99.90
31525;DHT22;18134;52.298;8.888;2023-02-02T06:58:55;5.30;99.90
31525;DHT22;18134;52.298;8.888;2023-02-02T07:01:21;5.20;99.90
31525;DHT22;18134;52.298;8.888;2023-02-02T07:03:48;5.20;99.90
31525;DHT22;18134;52.298;8.888;2023-02-02T07:06:20;5.40;99.90
31525;DHT22;18134;52.298;8.888;2023-02-02T07:08:46;5.20;99.90
31525;DHT22;18134;52.298;8.888;2023-02-02T07:11:11;5.30;99.90
31525;DHT22;18134;52.298;8.888;2023-02-02T07:13:39;5.60;99.90
31525;DHT22;18134;52.298;8.888;2023-02-02T07:16:05;5.20;99.90
31525;DHT22;18134;52.298;8.888;2023-02-02T07:18:32;5.30;99.90
31525;DHT22;18134;52.298;8.888;2023-02-02T07:20:58;5.20;99.90
31525;DHT22;18134;52.298;8.888;2023-02-02T07:23:25;5.30;99.90
31525;DHT22;18134;52.298;8.888;2023-02-02T07:26:02;5.20;99.90
31525;DHT22;18134;52.298;8.888;2023-02-02T07:28:28;5.30;99.90
31525;DHT22;18134;52.298;8.888;2023-02-02T07:30:53;5.20;99.90
31525;DHT22;18134;52.298;8.888;2023-02-02T07:33:19;5.20;99.90
31525;DHT22;18134;52.298;8.888;2023-02-02T07:35:44;5.70;99.90
31525;DHT22;18134;52.298;8.888;2023-02-02T07:38:10;5.10;99.90
31525;DHT22;18134;52.298;8.888;2023-02-02T07:40:35;5.00;99.90
31525;DHT22;18134;52.298;8.888;2023-02-02T07:43:01;4.90;99.90
31525;DHT22;18134;52.298;8.888;2023-02-02T07:45:28;4.90;99.90
31525;DHT22;18134;52.298;8.888;2023-02-02T07:47:59;4.90;99.90
31525;DHT22;18134;52.298;8.888;2023-02-02T07:50:25;5.00;99.90
31525;DHT22;18134;52.298;8.888;2023-02-02T07:52:51;5.00;99.90
31525;DHT22;18134;52.298;8.888;2023-02-02T07:55:17;4.90;99.90
31525;DHT22;18134;52.298;8.888;2023-02-02T07:57:45;4.80;99.90
31525;DHT22;18134;52.298;8.888;2023-02-02T08:00:11;4.80;99.90
31525;DHT22;18134;52.298;8.888;2023-02-02T08:02:37;4.90;99.90
31525;DHT22;18134;52.298;8.888;2023-02-02T08:05:02;5.10;99.90
31525;DHT22;18134;52.298;8.888;2023-02-02T08:07:31;4.90;99.90
31525;DHT22;18134;52.298;8.888;2023-02-02T08:09:58;5.40;99.90
31525;DHT22;18134;52.298;8.888;2023-02-02T08:12:23;5.00;99.90
31525;DHT22;18134;52.298;8.888;2023-02-02T08:14:50;5.10;99.90
31525;DHT22;18134;52.298;8.888;2023-02-02T08:17:16;5.00;99.90
31525;DHT22;18134;52.298;8.888;2023-02-02T08:19:41;5.10;99.90
31525;DHT22;18134;52.298;8.888;2023-02-02T08:22:07;5.10;99.90
31525;DHT22;18134;52.298;8.888;2023-02-02T08:24:33;4.90;99.90
31525;DHT22;18134;52.298;8.888;2023-02-02T08:26:58;5.20;99.90
31525;DHT22;18134;52.298;8.888;2023-02-02T08:29:26;5.30;99.90
31525;DHT22;18134;52.298;8.888;2023-02-02T08:31:52;5.20;99.90
31525;DHT22;18134;52.298;8.888;2023-02-02T08:34:18;5.40;99.90
31525;DHT22;18134;52.298;8.888;2023-02-02T08:36:43;5.20;99.90
31525;DHT22;18134;52.298;8.888;2023-02-02T08:39:11;5.20;99.90
31525;DHT22;18134;52.298;8.888;2023-02-02T08:41:38;5.20;99.90
31525;DHT22;18134;52.298;8.888;2023-02-02T08:44:06;5.30;99.90
31525;DHT22;18134;52.298;8.888;2023-02-02T08:46:32;5.50;99.90
31525;DHT22;18134;52.298;8.888;2023-02-02T08:48:58;5.50;99.90
31525;DHT22;18134;52.298;8.888;2023-02-02T08:51:23;5.40;99.90
31525;DHT22;18134;52.298;8.888;2023-02-02T08:53:49;5.60;99.90
31525;DHT22;18134;52.298;8.888;2023-02-02T08:56:15;5.50;99.90
31525;DHT22;18134;52.298;8.888;2023-02-02T08:58:45;5.60;99.90
31525;DHT22;18134;52.298;8.888;2023-02-02T09:01:14;5.60;99.90
31525;DHT22;18134;52.298;8.888;2023-02-02T09:03:40;5.80;99.90
31525;DHT22;18134;52.298;8.888;2023-02-02T09:06:07;5.70;99.90
31525;DHT22;18134;52.298;8.888;2023-02-02T09:08:33;5.80;99.90
31525;DHT22;18134;52.298;8.888;2023-02-02T09:11:02;5.90;99.90
31525;DHT22;18134;52.298;8.888;2023-02-02T09:13:28;5.90;99.90
31525;DHT22;18134;52.298;8.888;2023-02-02T09:15:57;5.90;99.90
31525;DHT22;18134;52.298;8.888;2023-02-02T09:18:23;5.90;99.90
31525;DHT22;18134;52.298;8.888;2023-02-02T09:20:49;6.00;99.90
31525;DHT22;18134;52.298;8.888;2023-02-02T09:23:14;5.90;99.90
31525;DHT22;18134;52.298;8.888;2023-02-02T09:25:40;6.10;99.90
31525;DHT22;18134;52.298;8.888;2023-02-02T09:28:05;6.00;99.90
31525;DHT22;18134;52.298;8.888;2023-02-02T09:30:31;6.00;99.90
31525;DHT22;18134;52.298;8.888;2023-02-02T09:32:56;6.00;99.90
31525;DHT22;18134;52.298;8.888;2023-02-02T09:35:24;6.00;99.90
31525;DHT22;18134;52.298;8.888;2023-02-02T09:37:50;6.00;99.90
31525;DHT22;18134;52.298;8.888;2023-02-02T09:40:16;6.00;99.90
31525;DHT22;18134;52.298;8.888;2023-02-02T09:47:49;6.20;99.90
31525;DHT22;18134;52.298;8.888;2023-02-02T09:52:57;6.40;99.90
31525;DHT22;18134;52.298;8.888;2023-02-02T09:58:02;6.30;99.90
31525;DHT22;18134;52.298;8.888;2023-02-02T10:00:30;6.60;99.90
31525;DHT22;18134;52.298;8.888;2023-02-02T10:03:04;6.40;99.90
31525;DHT22;18134;52.298;8.888;2023-02-02T10:05:37;6.60;99.90
31525;DHT22;18134;52.298;8.888;2023-02-02T10:08:06;6.60;99.90
31525;DHT22;18134;52.298;8.888;2023-02-02T10:10:33;6.70;99.90
31525;DHT22;18134;52.298;8.888;2023-02-02T10:13:04;6.70;99.90
31525;DHT22;18134;52.298;8.888;2023-02-02T10:23:23;6.80;99.90
31525;DHT22;18134;52.298;8.888;2023-02-02T10:25:56;6.80;99.90
31525;DHT22;18134;52.298;8.888;2023-02-02T10:31:02;6.80;99.90
31525;DHT22;18134;52.298;8.888;2023-02-02T10:36:00;7.10;99.90
31525;DHT22;18134;52.298;8.888;2023-02-02T10:46:21;6.80;99.90
31525;DHT22;18134;52.298;8.888;2023-02-02T10:48:48;7.00;99.90
31525;DHT22;18134;52.298;8.888;2023-02-02T10:53:43;7.00;99.90
31525;DHT22;18134;52.298;8.888;2023-02-02T10:56:11;7.00;99.90
31525;DHT22;18134;52.298;8.888;2023-02-02T10:58:39;7.20;99.90
31525;DHT22;18134;52.298;8.888;2023-02-02T11:01:10;7.10;99.90
31525;DHT22;18134;52.298;8.888;2023-02-02T11:03:36;7.00;99.90
31525;DHT22;18134;52.298;8.888;2023-02-02T11:06:02;7.10;99.90
31525;DHT22;18134;52.298;8.888;2023-02-02T11:08:53;7.30;99.90
31525;DHT22;18134;52.298;8.888;2023-02-02T11:11:25;7.20;99.90
31525;DHT22;18134;52.298;8.888;2023-02-02T11:14:00;7.30;99.90
31525;DHT22;18134;52.298;8.888;2023-02-02T11:16:28;7.20;99.90
31525;DHT22;18134;52.298;8.888;2023-02-02T11:18:54;7.20;99.90
31525;DHT22;18134;52.298;8.888;2023-02-02T11:26:17;7.10;99.90
31525;DHT22;18134;52.298;8.888;2023-02-02T11:28:43;7.10;99.90
31525;DHT22;18134;52.298;8.888;2023-02-02T11:31:12;7.10;99.90
31525;DHT22;18134;52.298;8.888;2023-02-02T11:33:53;7.20;99.90
31525;DHT22;18134;52.298;8.888;2023-02-02T11:36:20;7.20;99.90
31525;DHT22;18134;52.298;8.888;2023-02-02T11:38:45;7.50;99.90
31525;DHT22;18134;52.298;8.888;2023-02-02T11:41:11;7.40;99.90
31525;DHT22;18134;52.298;8.888;2023-02-02T11:43:47;7.40;99.90
31525;DHT22;18134;52.298;8.888;2023-02-02T11:48:53;7.60;99.90
31525;DHT22;18134;52.298;8.888;2023-02-02T11:51:23;7.60;99.90
31525;DHT22;18134;52.298;8.888;2023-02-02T11:54:25;7.70;99.90
31525;DHT22;18134;52.298;8.888;2023-02-02T11:56:47;7.70;99.90
31525;DHT22;18134;52.298;8.888;2023-02-02T12:04:39;7.50;99.90
31525;DHT22;18134;52.298;8.888;2023-02-02T12:07:18;7.30;99.90
31525;DHT22;18134;52.298;8.888;2023-02-02T12:09:44;7.40;99.90
31525;DHT22;18134;52.298;8.888;2023-02-02T12:17:43;7.50;99.90
31525;DHT22;18134;52.298;8.888;2023-02-02T12:31:06;7.30;99.90
31525;DHT22;18134;52.298;8.888;2023-02-02T13:01:33;7.50;99.90
31525;DHT22;18134;52.298;8.888;2023-02-02T13:09:26;8.00;99.90
31525;DHT22;18134;52.298;8.888;2023-02-02T13:12:04;7.80;99.90
31525;DHT22;18134;52.298;8.888;2023-02-02T13:14:32;7.70;99.90
31525;DHT22;18134;52.298;8.888;2023-02-02T13:17:01;7.60;99.90
31525;DHT22;18134;52.298;8.888;2023-02-02T13:19:36;7.60;99.90
31525;DHT22;18134;52.298;8.888;2023-02-02T13:22:03;7.50;99.90
31525;DHT22;18134;52.298;8.888;2023-02-02T13:24:34;7.70;99.90
31525;DHT22;18134;52.298;8.888;2023-02-02T13:27:01;7.90;99.90
31525;DHT22;18134;52.298;8.888;2023-02-02T13:29:37;7.80;99.90
31525;DHT22;18134;52.298;8.888;2023-02-02T13:34:43;7.90;99.90
31525;DHT22;18134;52.298;8.888;2023-02-02T13:39:44;7.90;99.90
31525;DHT22;18134;52.298;8.888;2023-02-02T13:42:15;7.80;99.90
31525;DHT22;18134;52.298;8.888;2023-02-02T13:44:45;8.00;99.90
31525;DHT22;18134;52.298;8.888;2023-02-02T13:47:15;7.90;99.90
31525;DHT22;18134;52.298;8.888;2023-02-02T13:49:48;7.80;99.90
31525;DHT22;18134;52.298;8.888;2023-02-02T14:05:21;7.70;99.90
31525;DHT22;18134;52.298;8.888;2023-02-02T14:07:46;7.50;99.90
31525;DHT22;18134;52.298;8.888;2023-02-02T14:10:23;7.70;99.90
31525;DHT22;18134;52.298;8.888;2023-02-02T14:12:49;7.40;99.90
31525;DHT22;18134;52.298;8.888;2023-02-02T14:15:15;7.10;99.90
31525;DHT22;18134;52.298;8.888;2023-02-02T14:17:48;7.10;99.90
31525;DHT22;18134;52.298;8.888;2023-02-02T14:22:58;7.30;99.90
31525;DHT22;18134;52.298;8.888;2023-02-02T14:28:10;6.70;99.90
31525;DHT22;18134;52.298;8.888;2023-02-02T14:30:37;6.80;99.90
31525;DHT22;18134;52.298;8.888;2023-02-02T14:43:35;6.60;99.90
31525;DHT22;18134;52.298;8.888;2023-02-02T14:48:40;6.60;99.90
31525;DHT22;18134;52.298;8.888;2023-02-02T14:51:13;6.40;99.90
31525;DHT22;18134;52.298;8.888;2023-02-02T14:53:45;6.30;99.90
31525;DHT22;18134;52.298;8.888;2023-02-02T14:56:12;6.20;99.90
31525;DHT22;18134;52.298;8.888;2023-02-02T15:01:07;6.00;99.90
31525;DHT22;18134;52.298;8.888;2023-02-02T15:06:04;6.10;99.90
31525;DHT22;18134;52.298;8.888;2023-02-02T15:08:32;6.10;99.90
31525;DHT22;18134;52.298;8.888;2023-02-02T15:11:02;6.00;99.90
31525;DHT22;18134;52.298;8.888;2023-02-02T15:13:53;5.90;99.90
31525;DHT22;18134;52.298;8.888;2023-02-02T15:16:22;6.00;99.90
31525;DHT22;18134;52.298;8.888;2023-02-02T15:18:52;5.90;99.90
31525;DHT22;18134;52.298;8.888;2023-02-02T15:21:21;6.00;99.90
31525;DHT22;18134;52.298;8.888;2023-02-02T15:23:48;6.00;99.90
31525;DHT22;18134;52.298;8.888;2023-02-02T15:26:34;5.80;99.90
31525;DHT22;18134;52.298;8.888;2023-02-02T15:29:05;5.80;99.90
31525;DHT22;18134;52.298;8.888;2023-02-02T15:31:33;5.70;99.90
31525;DHT22;18134;52.298;8.888;2023-02-02T15:34:01;5.80;99.90
31525;DHT22;18134;52.298;8.888;2023-02-02T15:36:38;5.70;99.90
31525;DHT22;18134;52.298;8.888;2023-02-02T15:41:43;5.60;99.90
31525;DHT22;18134;52.298;8.888;2023-02-02T15:44:27;5.90;99.90
31525;DHT22;18134;52.298;8.888;2023-02-02T15:46:54;5.70;99.90
31525;DHT22;18134;52.298;8.888;2023-02-02T15:49:28;5.60;99.90
31525;DHT22;18134;52.298;8.888;2023-02-02T15:51:57;5.80;99.90
31525;DHT22;18134;52.298;8.888;2023-02-02T15:54:25;5.50;99.90
31525;DHT22;18134;52.298;8.888;2023-02-02T15:56:53;5.70;99.90
31525;DHT22;18134;52.298;8.888;2023-02-02T15:59:21;5.50;99.90
31525;DHT22;18134;52.298;8.888;2023-02-02T16:01:51;5.60;99.90
31525;DHT22;18134;52.298;8.888;2023-02-02T16:04:25;5.60;99.90
31525;DHT22;18134;52.298;8.888;2023-02-02T16:06:53;5.40;99.90
31525;DHT22;18134;52.298;8.888;2023-02-02T16:09:23;5.80;99.90
31525;DHT22;18134;52.298;8.888;2023-02-02T16:11:50;5.70;99.90
31525;DHT22;18134;52.298;8.888;2023-02-02T16:14:16;5.50;99.90
31525;DHT22;18134;52.298;8.888;2023-02-02T16:16:42;5.70;99.90
31525;DHT22;18134;52.298;8.888;2023-02-02T16:22:19;5.40;99.90
31525;DHT22;18134;52.298;8.888;2023-02-02T16:27:18;5.50;99.90
31525;DHT22;18134;52.298;8.888;2023-02-02T16:29:45;5.40;99.90
31525;DHT22;18134;52.298;8.888;2023-02-02T16:34:51;5.60;99.90
31525;DHT22;18134;52.298;8.888;2023-02-02T16:39:55;5.30;99.90
31525;DHT22;18134;52.298;8.888;2023-02-02T16:42:22;5.20;99.90
31525;DHT22;18134;52.298;8.888;2023-02-02T16:44:48;5.20;99.90
31525;DHT22;18134;52.298;8.888;2023-02-02T16:47:47;5.40;99.90
31525;DHT22;18134;52.298;8.888;2023-02-02T16:52:34;5.30;99.90
31525;DHT22;18134;52.298;8.888;2023-02-02T16:55:14;5.20;99.90
31525;DHT22;18134;52.298;8.888;2023-02-02T16:57:45;5.20;99.90
31525;DHT22;18134;52.298;8.888;2023-02-02T17:00:17;5.20;99.90
31525;DHT22;18134;52.298;8.888;2023-02-02T17:02:44;5.50;99.90
31525;DHT22;18134;52.298;8.888;2023-02-02T17:07:50;5.50;99.90
31525;DHT22;18134;52.298;8.888;2023-02-02T17:12:43;5.30;99.90
31525;DHT22;18134;52.298;8.888;2023-02-02T17:17:44;5.20;99.90
31525;DHT22;18134;52.298;8.888;2023-02-02T17:20:12;5.20;99.90
31525;DHT22;18134;52.298;8.888;2023-02-02T17:22:39;5.20;99.90
31525;DHT22;18134;52.298;8.888;2023-02-02T17:25:05;5.30;99.90
31525;DHT22;18134;52.298;8.888;2023-02-02T17:27:36;5.20;99.90
31525;DHT22;18134;52.298;8.888;2023-02-02T17:30:04;5.10;99.90
31525;DHT22;18134;52.298;8.888;2023-02-02T17:32:30;5.20;99.90
31525;DHT22;18134;52.298;8.888;2023-02-02T17:34:58;5.10;99.90
31525;DHT22;18134;52.298;8.888;2023-02-02T17:37:23;5.10;99.90
31525;DHT22;18134;52.298;8.888;2023-02-02T17:39:51;5.10;99.90
31525;DHT22;18134;52.298;8.888;2023-02-02T17:42:25;5.20;99.90
31525;DHT22;18134;52.298;8.888;2023-02-02T17:44:52;5.20;99.90
31525;DHT22;18134;52.298;8.888;2023-02-02T17:47:17;5.40;99.90
31525;DHT22;18134;52.298;8.888;2023-02-02T17:49:43;5.20;99.90
31525;DHT22;18134;52.298;8.888;2023-02-02T17:52:11;5.20;99.90
31525;DHT22;18134;52.298;8.888;2023-02-02T17:54:37;5.20;99.90
31525;DHT22;18134;52.298;8.888;2023-02-02T17:57:04;5.40;99.90
31525;DHT22;18134;52.298;8.888;2023-02-02T17:59:30;5.50;99.90
31525;DHT22;18134;52.298;8.888;2023-02-02T18:01:55;5.40;99.90
31525;DHT22;18134;52.298;8.888;2023-02-02T18:04:21;5.30;99.90
31525;DHT22;18134;52.298;8.888;2023-02-02T18:06:48;5.30;99.90
31525;DHT22;18134;52.298;8.888;2023-02-02T18:09:14;5.30;99.90
31525;DHT22;18134;52.298;8.888;2023-02-02T18:11:40;5.30;99.90
31525;DHT22;18134;52.298;8.888;2023-02-02T18:14:08;5.30;99.90
31525;DHT22;18134;52.298;8.888;2023-02-02T18:16:34;5.30;99.90
31525;DHT22;18134;52.298;8.888;2023-02-02T18:18:59;5.30;99.90
31525;DHT22;18134;52.298;8.888;2023-02-02T18:21:26;5.40;99.90
31525;DHT22;18134;52.298;8.888;2023-02-02T18:23:53;5.30;99.90
31525;DHT22;18134;52.298;8.888;2023-02-02T18:26:20;5.20;99.90
31525;DHT22;18134;52.298;8.888;2023-02-02T18:28:46;5.20;99.90
31525;DHT22;18134;52.298;8.888;2023-02-02T18:31:17;5.20;99.90
31525;DHT22;18134;52.298;8.888;2023-02-02T18:33:47;5.30;99.90
31525;DHT22;18134;52.298;8.888;2023-02-02T18:36:17;5.30;99.90
31525;DHT22;18134;52.298;8.888;2023-02-02T18:38:44;5.40;99.90
31525;DHT22;18134;52.298;8.888;2023-02-02T18:41:14;5.30;99.90
31525;DHT22;18134;52.298;8.888;2023-02-02T18:43:40;5.40;99.90
31525;DHT22;18134;52.298;8.888;2023-02-02T18:58:21;5.20;99.90
31525;DHT22;18134;52.298;8.888;2023-02-02T19:00:47;5.30;99.90
31525;DHT22;18134;52.298;8.888;2023-02-02T19:03:13;6.00;99.90
31525;DHT22;18134;52.298;8.888;2023-02-02T19:05:39;5.30;99.90
31525;DHT22;18134;52.298;8.888;2023-02-02T19:08:23;5.40;99.90
31525;DHT22;18134;52.298;8.888;2023-02-02T19:10:51;5.60;99.90
31525;DHT22;18134;52.298;8.888;2023-02-02T19:13:20;5.40;99.90